AUA424 EDDH-LIMC
Flight info
| Callsign | AUA424 |
|---|---|
| Flight time | N/A |
| Altitude | 37000 |
| Route | AMLUH2G AMLUH M852 DENIX DCT ZUCKA DCT EXITI DCT BERAS/N0455F360 DCT OLPIX/N0455F370 DCT EKPEB DCT RENTA DCT ATPED DCT LUSIL/N0402F190 M984 EVRIP |
| Aircraft | A320/M-SDE3FGHIRWY/LB1 |
Departure
| Time | 2026-05-05 18:30 |
|---|---|
| Airport | Hamburg Helmut Schmidt Airport (EDDH) |
Arrival
| Time | N/A |
|---|---|
| Airport | Milan Malpensa International Airport (LIMC) |
| Time | Latitude | Longitude | Altitude | Speed | Heading |
|---|---|---|---|---|---|
| 2026-05-05 17:48 | 53.62831 | 9.99065 | 44 ft | 0 kts | 63° |
| 2026-05-05 18:19 | 53.62820 | 9.99032 | 41 ft | 4 kts | 58° |
| 2026-05-05 18:20 | 53.62808 | 9.98998 | 43 ft | 4 kts | 52° |
| 2026-05-05 18:20 | 53.62790 | 9.98976 | 44 ft | 4 kts | 356° |
| 2026-05-05 18:20 | 53.62770 | 9.98985 | 42 ft | 1 kts | 333° |
| 2026-05-05 18:20 | 53.62766 | 9.98987 | 43 ft | 0 kts | 333° |
| 2026-05-05 18:23 | 53.62767 | 9.98987 | 44 ft | 1 kts | 333° |
| 2026-05-05 18:23 | 53.62809 | 9.98953 | 42 ft | 9 kts | 334° |
| 2026-05-05 18:23 | 53.62862 | 9.98928 | 43 ft | 7 kts | 2° |
| 2026-05-05 18:24 | 53.62900 | 9.98965 | 43 ft | 6 kts | 45° |
| 2026-05-05 18:24 | 53.62912 | 9.98992 | 43 ft | 1 kts | 56° |
| 2026-05-05 18:24 | 53.62929 | 9.99036 | 43 ft | 8 kts | 57° |
| 2026-05-05 18:24 | 53.62958 | 9.99102 | 44 ft | 6 kts | 51° |
| 2026-05-05 18:25 | 53.62984 | 9.99152 | 44 ft | 6 kts | 48° |
| 2026-05-05 18:25 | 53.62993 | 9.99170 | 44 ft | 6 kts | 48° |
| 2026-05-05 18:25 | 53.63081 | 9.99349 | 45 ft | 6 kts | 52° |
| 2026-05-05 18:25 | 53.63082 | 9.99351 | 45 ft | 0 kts | 52° |
| 2026-05-05 18:29 | 53.63107 | 9.99405 | 40 ft | 11 kts | 51° |
| 2026-05-05 18:29 | 53.63171 | 9.99472 | 45 ft | 13 kts | 351° |
| 2026-05-05 18:29 | 53.63263 | 9.99403 | 46 ft | 22 kts | 333° |
| 2026-05-05 18:29 | 53.63636 | 9.99084 | 42 ft | 96 kts | 332° |
| 2026-05-05 18:30 | 53.64410 | 9.98413 | 41 ft | 151 kts | 333° |
| 2026-05-05 18:30 | 53.65411 | 9.97542 | 461 ft | 164 kts | 333° |
| 2026-05-05 18:30 | 53.66430 | 9.96662 | 1205 ft | 164 kts | 336° |
| 2026-05-05 18:30 | 53.67485 | 9.95763 | 1710 ft | 179 kts | 338° |
| 2026-05-05 18:31 | 53.68686 | 9.94835 | 2014 ft | 201 kts | 349° |
| 2026-05-05 18:31 | 53.69621 | 9.94664 | 2356 ft | 206 kts | 4° |
| 2026-05-05 18:31 | 53.71533 | 9.94733 | 3455 ft | 209 kts | 7° |
| 2026-05-05 18:31 | 53.72855 | 9.95653 | 4194 ft | 212 kts | 46° |
| 2026-05-05 18:32 | 53.73524 | 9.97861 | 4953 ft | 216 kts | 74° |
| 2026-05-05 18:32 | 53.73915 | 10.00349 | 5689 ft | 222 kts | 75° |
| 2026-05-05 18:32 | 53.74063 | 10.02986 | 6353 ft | 231 kts | 97° |
| 2026-05-05 18:32 | 53.73817 | 10.04767 | 6683 ft | 243 kts | 112° |
| 2026-05-05 18:33 | 53.72970 | 10.07424 | 7055 ft | 266 kts | 121° |
| 2026-05-05 18:33 | 53.72017 | 10.10191 | 7549 ft | 282 kts | 121° |
| 2026-05-05 18:33 | 53.71027 | 10.13103 | 8330 ft | 289 kts | 121° |
| 2026-05-05 18:33 | 53.70017 | 10.16064 | 9204 ft | 292 kts | 124° |
| 2026-05-05 18:34 | 53.68734 | 10.18750 | 9726 ft | 296 kts | 139° |
| 2026-05-05 18:34 | 53.67067 | 10.20799 | 10206 ft | 302 kts | 154° |
| 2026-05-05 18:34 | 53.65050 | 10.22150 | 10463 ft | 323 kts | 167° |
| 2026-05-05 18:34 | 53.62800 | 10.23150 | 10681 ft | 346 kts | 167° |
| 2026-05-05 18:35 | 53.60419 | 10.24216 | 11093 ft | 359 kts | 167° |
| 2026-05-05 18:35 | 53.57983 | 10.25321 | 11772 ft | 365 kts | 167° |
| 2026-05-05 18:35 | 53.55519 | 10.26450 | 12500 ft | 369 kts | 167° |
| 2026-05-05 18:35 | 53.53031 | 10.27600 | 13230 ft | 372 kts | 166° |
| 2026-05-05 18:36 | 53.50517 | 10.28763 | 13925 ft | 376 kts | 166° |
| 2026-05-05 18:36 | 53.47976 | 10.29928 | 14550 ft | 379 kts | 166° |
| 2026-05-05 18:36 | 53.45450 | 10.31082 | 15172 ft | 383 kts | 166° |
| 2026-05-05 18:36 | 53.42870 | 10.32256 | 15794 ft | 386 kts | 166° |
| 2026-05-05 18:37 | 53.40266 | 10.33434 | 16404 ft | 389 kts | 166° |
| 2026-05-05 18:37 | 53.37644 | 10.34615 | 16989 ft | 392 kts | 166° |
| 2026-05-05 18:37 | 53.35002 | 10.35802 | 17573 ft | 395 kts | 166° |
| 2026-05-05 18:37 | 53.32330 | 10.37003 | 18151 ft | 398 kts | 167° |
| 2026-05-05 18:38 | 53.29646 | 10.38210 | 18658 ft | 401 kts | 167° |
| 2026-05-05 18:38 | 53.26937 | 10.39427 | 19174 ft | 403 kts | 166° |
| 2026-05-05 18:38 | 53.24225 | 10.40637 | 19706 ft | 404 kts | 166° |
| 2026-05-05 18:38 | 53.21497 | 10.41851 | 20213 ft | 406 kts | 167° |
| 2026-05-05 18:39 | 53.18752 | 10.43073 | 20707 ft | 409 kts | 167° |
| 2026-05-05 18:39 | 53.15995 | 10.44299 | 21191 ft | 411 kts | 167° |
| 2026-05-05 18:39 | 53.13259 | 10.45515 | 21658 ft | 414 kts | 167° |
| 2026-05-05 18:39 | 53.10454 | 10.46632 | 22129 ft | 415 kts | 170° |
| 2026-05-05 18:40 | 53.07613 | 10.47581 | 22587 ft | 417 kts | 172° |
| 2026-05-05 18:40 | 53.04750 | 10.48427 | 23037 ft | 419 kts | 173° |
| 2026-05-05 18:40 | 53.01862 | 10.49242 | 23474 ft | 422 kts | 173° |
| 2026-05-05 18:40 | 52.98963 | 10.50064 | 23837 ft | 424 kts | 173° |
| 2026-05-05 18:41 | 52.96051 | 10.50918 | 24213 ft | 426 kts | 172° |
| 2026-05-05 18:41 | 52.93128 | 10.51804 | 24585 ft | 428 kts | 172° |
| 2026-05-05 18:41 | 52.90198 | 10.52711 | 24960 ft | 429 kts | 172° |
| 2026-05-05 18:41 | 52.87257 | 10.53632 | 25324 ft | 431 kts | 172° |
| 2026-05-05 18:42 | 52.84306 | 10.54558 | 25689 ft | 433 kts | 172° |
| 2026-05-05 18:42 | 52.81338 | 10.55482 | 26049 ft | 434 kts | 172° |
| 2026-05-05 18:42 | 52.78363 | 10.56398 | 26382 ft | 436 kts | 173° |
| 2026-05-05 18:42 | 52.75380 | 10.57311 | 26713 ft | 437 kts | 173° |
| 2026-05-05 18:43 | 52.72380 | 10.58226 | 27060 ft | 438 kts | 173° |
| 2026-05-05 18:43 | 52.69381 | 10.59143 | 27372 ft | 439 kts | 173° |
| 2026-05-05 18:43 | 52.66374 | 10.60064 | 27697 ft | 440 kts | 173° |
| 2026-05-05 18:43 | 52.63394 | 10.60977 | 28023 ft | 441 kts | 173° |
| 2026-05-05 18:44 | 52.60369 | 10.61901 | 28358 ft | 442 kts | 173° |
| 2026-05-05 18:44 | 52.57353 | 10.62822 | 28798 ft | 440 kts | 173° |
| 2026-05-05 18:44 | 52.54347 | 10.63737 | 29248 ft | 439 kts | 173° |
| 2026-05-05 18:44 | 52.51350 | 10.64648 | 29681 ft | 437 kts | 173° |
| 2026-05-05 18:45 | 52.48365 | 10.65553 | 30091 ft | 436 kts | 173° |
| 2026-05-05 18:45 | 52.45389 | 10.66451 | 30477 ft | 434 kts | 173° |
| 2026-05-05 18:45 | 52.42422 | 10.67344 | 30864 ft | 432 kts | 173° |
| 2026-05-05 18:45 | 52.39471 | 10.68236 | 31255 ft | 430 kts | 173° |
| 2026-05-05 18:46 | 52.36531 | 10.69127 | 31646 ft | 428 kts | 173° |
| 2026-05-05 18:46 | 52.33611 | 10.70009 | 32049 ft | 426 kts | 173° |
| 2026-05-05 18:46 | 52.30696 | 10.70885 | 32443 ft | 424 kts | 173° |
| 2026-05-05 18:46 | 52.27796 | 10.71756 | 32829 ft | 422 kts | 173° |
| 2026-05-05 18:47 | 52.24912 | 10.72623 | 33225 ft | 420 kts | 173° |
| 2026-05-05 18:47 | 52.22042 | 10.73489 | 33630 ft | 419 kts | 173° |
| 2026-05-05 18:47 | 52.19183 | 10.74353 | 33998 ft | 417 kts | 173° |
| 2026-05-05 18:47 | 52.16330 | 10.75208 | 34302 ft | 416 kts | 173° |
| 2026-05-05 18:48 | 52.13544 | 10.76036 | 34562 ft | 417 kts | 173° |
| 2026-05-05 18:48 | 52.10686 | 10.76883 | 34784 ft | 418 kts | 173° |
| 2026-05-05 18:48 | 52.04983 | 10.78578 | 34851 ft | 419 kts | 173° |
| 2026-05-05 18:49 | 51.99259 | 10.80279 | 34857 ft | 417 kts | 173° |
| 2026-05-05 18:49 | 51.93554 | 10.81960 | 34851 ft | 417 kts | 173° |
| 2026-05-05 18:50 | 51.87850 | 10.83645 | 34844 ft | 416 kts | 173° |
| 2026-05-05 18:50 | 51.82145 | 10.85329 | 34846 ft | 416 kts | 173° |
| 2026-05-05 18:51 | 51.76443 | 10.87006 | 34843 ft | 416 kts | 173° |
| 2026-05-05 18:51 | 51.70757 | 10.88668 | 34845 ft | 414 kts | 173° |
| 2026-05-05 18:52 | 51.65082 | 10.90296 | 34838 ft | 414 kts | 173° |
| 2026-05-05 18:52 | 51.59396 | 10.91751 | 34837 ft | 414 kts | 174° |
| 2026-05-05 18:53 | 51.53732 | 10.93119 | 34833 ft | 413 kts | 174° |
| 2026-05-05 18:53 | 51.48058 | 10.94512 | 34827 ft | 411 kts | 173° |
| 2026-05-05 18:54 | 51.42394 | 10.95937 | 34827 ft | 411 kts | 173° |
| 2026-05-05 18:54 | 51.36754 | 10.97356 | 34821 ft | 411 kts | 173° |
| 2026-05-05 18:55 | 51.31103 | 10.98765 | 34820 ft | 411 kts | 173° |
| 2026-05-05 18:55 | 51.25456 | 11.00175 | 34816 ft | 411 kts | 173° |
| 2026-05-05 18:56 | 51.19803 | 11.01585 | 34816 ft | 412 kts | 173° |
| 2026-05-05 18:56 | 51.14134 | 11.02989 | 34813 ft | 412 kts | 173° |
| 2026-05-05 18:57 | 51.08459 | 11.04388 | 34811 ft | 412 kts | 173° |
| 2026-05-05 18:57 | 51.02780 | 11.05782 | 34995 ft | 414 kts | 172° |
| 2026-05-05 18:58 | 50.99931 | 11.06481 | 35229 ft | 415 kts | 172° |
| 2026-05-05 18:58 | 50.97109 | 11.07174 | 35468 ft | 415 kts | 172° |
| 2026-05-05 18:58 | 50.94251 | 11.07875 | 35706 ft | 415 kts | 172° |
| 2026-05-05 18:58 | 50.91394 | 11.08574 | 35932 ft | 416 kts | 173° |
| 2026-05-05 18:59 | 50.88541 | 11.09273 | 36164 ft | 416 kts | 173° |
| 2026-05-05 18:59 | 50.85675 | 11.09976 | 36397 ft | 416 kts | 173° |
| 2026-05-05 18:59 | 50.82812 | 11.10677 | 36615 ft | 416 kts | 173° |
| 2026-05-05 18:59 | 50.79953 | 11.11378 | 36773 ft | 417 kts | 173° |
| 2026-05-05 19:00 | 50.74174 | 11.12786 | 36815 ft | 420 kts | 173° |
| 2026-05-05 19:00 | 50.68389 | 11.14193 | 36809 ft | 421 kts | 173° |
| 2026-05-05 19:01 | 50.62634 | 11.15579 | 36819 ft | 421 kts | 173° |
| 2026-05-05 19:01 | 50.56840 | 11.16968 | 36812 ft | 421 kts | 173° |
| 2026-05-05 19:02 | 50.51050 | 11.18369 | 36809 ft | 421 kts | 173° |
| 2026-05-05 19:02 | 50.45257 | 11.19757 | 36791 ft | 421 kts | 173° |
| 2026-05-05 19:03 | 50.39451 | 11.21146 | 36793 ft | 421 kts | 173° |
| 2026-05-05 19:03 | 50.33685 | 11.22527 | 36797 ft | 421 kts | 173° |
| 2026-05-05 19:04 | 50.27880 | 11.23921 | 36798 ft | 422 kts | 173° |
| 2026-05-05 19:04 | 50.22061 | 11.25303 | 36791 ft | 423 kts | 173° |
| 2026-05-05 19:05 | 50.16227 | 11.26681 | 36795 ft | 423 kts | 173° |
| 2026-05-05 19:05 | 50.10420 | 11.28062 | 36795 ft | 423 kts | 173° |
| 2026-05-05 19:06 | 50.04568 | 11.29452 | 36799 ft | 424 kts | 173° |
| 2026-05-05 19:06 | 49.99078 | 11.30738 | 36799 ft | 425 kts | 173° |
| 2026-05-05 19:07 | 49.93222 | 11.32112 | 36808 ft | 425 kts | 173° |
| 2026-05-05 19:07 | 49.87374 | 11.33482 | 36810 ft | 425 kts | 173° |
| 2026-05-05 19:08 | 49.81506 | 11.34855 | 36806 ft | 426 kts | 173° |
| 2026-05-05 19:08 | 49.75643 | 11.36218 | 36788 ft | 426 kts | 173° |
| 2026-05-05 19:09 | 49.69817 | 11.37578 | 36803 ft | 426 kts | 173° |
| 2026-05-05 19:09 | 49.63939 | 11.38947 | 36811 ft | 427 kts | 173° |
| 2026-05-05 19:10 | 49.58061 | 11.40306 | 36824 ft | 426 kts | 173° |
| 2026-05-05 19:10 | 49.52196 | 11.41539 | 36829 ft | 425 kts | 175° |
| 2026-05-05 19:11 | 49.46309 | 11.42507 | 36833 ft | 424 kts | 176° |
| 2026-05-05 19:11 | 49.40461 | 11.43434 | 36833 ft | 424 kts | 176° |
| 2026-05-05 19:12 | 49.34592 | 11.44409 | 36842 ft | 424 kts | 176° |
| 2026-05-05 19:12 | 49.28737 | 11.45417 | 36843 ft | 423 kts | 176° |
| 2026-05-05 19:13 | 49.22888 | 11.46414 | 36843 ft | 423 kts | 176° |
| 2026-05-05 19:13 | 49.17044 | 11.47407 | 36845 ft | 423 kts | 176° |
| 2026-05-05 19:14 | 49.11195 | 11.48387 | 36837 ft | 422 kts | 176° |
| 2026-05-05 19:14 | 49.05385 | 11.49369 | 36837 ft | 422 kts | 176° |
| 2026-05-05 19:15 | 48.99539 | 11.50356 | 36800 ft | 422 kts | 176° |
| 2026-05-05 19:15 | 48.93698 | 11.51333 | 36811 ft | 422 kts | 176° |
| 2026-05-05 19:16 | 48.87857 | 11.52310 | 36816 ft | 422 kts | 176° |
| 2026-05-05 19:16 | 48.82015 | 11.53287 | 36813 ft | 422 kts | 176° |
| 2026-05-05 19:17 | 48.76172 | 11.54264 | 36821 ft | 422 kts | 176° |
| 2026-05-05 19:17 | 48.70328 | 11.55244 | 36812 ft | 422 kts | 176° |
| 2026-05-05 19:18 | 48.64517 | 11.56200 | 36812 ft | 423 kts | 177° |
| 2026-05-05 19:18 | 48.59615 | 11.57007 | 36811 ft | 423 kts | 176° |
| 2026-05-05 19:19 | 48.53762 | 11.57965 | 36828 ft | 423 kts | 176° |
| 2026-05-05 19:19 | 48.47935 | 11.58925 | 36838 ft | 423 kts | 177° |
| 2026-05-05 19:20 | 48.42082 | 11.59885 | 36833 ft | 424 kts | 177° |
| 2026-05-05 19:20 | 48.36216 | 11.60857 | 36831 ft | 424 kts | 177° |
| 2026-05-05 19:21 | 48.30350 | 11.61819 | 36836 ft | 424 kts | 177° |
| 2026-05-05 19:21 | 48.24472 | 11.62772 | 36846 ft | 425 kts | 177° |
| 2026-05-05 19:22 | 48.18588 | 11.63737 | 36833 ft | 425 kts | 177° |